sensor_id;sensor_type;location;lat;lon;timestamp;temperature;humidity
578;DHT22;275;48.492;9.214;2024-03-25T00:01:00;7.10;34.10
578;DHT22;275;48.492;9.214;2024-03-25T00:03:26;7.00;34.40
578;DHT22;275;48.492;9.214;2024-03-25T00:05:52;6.80;34.80
578;DHT22;275;48.492;9.214;2024-03-25T00:08:19;6.60;36.10
578;DHT22;275;48.492;9.214;2024-03-25T00:10:45;7.00;34.80
578;DHT22;275;48.492;9.214;2024-03-25T00:13:11;7.40;33.90
578;DHT22;275;48.492;9.214;2024-03-25T00:15:39;7.40;33.30
578;DHT22;275;48.492;9.214;2024-03-25T00:18:06;7.10;34.30
578;DHT22;275;48.492;9.214;2024-03-25T00:20:31;7.50;33.30
578;DHT22;275;48.492;9.214;2024-03-25T00:22:58;7.40;33.40
578;DHT22;275;48.492;9.214;2024-03-25T00:25:24;7.30;33.40
578;DHT22;275;48.492;9.214;2024-03-25T00:27:52;7.60;33.10
578;DHT22;275;48.492;9.214;2024-03-25T00:30:17;6.90;34.10
578;DHT22;275;48.492;9.214;2024-03-25T00:32:46;7.10;34.80
578;DHT22;275;48.492;9.214;2024-03-25T00:35:12;7.40;33.10
578;DHT22;275;48.492;9.214;2024-03-25T00:37:39;6.90;34.90
578;DHT22;275;48.492;9.214;2024-03-25T00:40:06;7.40;33.90
578;DHT22;275;48.492;9.214;2024-03-25T00:42:33;7.50;32.90
578;DHT22;275;48.492;9.214;2024-03-25T00:44:59;6.80;35.70
578;DHT22;275;48.492;9.214;2024-03-25T00:47:26;7.20;34.10
578;DHT22;275;48.492;9.214;2024-03-25T00:49:53;7.80;32.10
578;DHT22;275;48.492;9.214;2024-03-25T00:52:20;7.70;32.00
578;DHT22;275;48.492;9.214;2024-03-25T00:54:46;7.50;32.70
578;DHT22;275;48.492;9.214;2024-03-25T00:57:13;7.50;33.00
578;DHT22;275;48.492;9.214;2024-03-25T00:59:39;7.80;32.30
578;DHT22;275;48.492;9.214;2024-03-25T01:02:06;7.20;33.00
578;DHT22;275;48.492;9.214;2024-03-25T01:04:32;7.30;33.10
578;DHT22;275;48.492;9.214;2024-03-25T01:07:00;7.30;33.60
578;DHT22;275;48.492;9.214;2024-03-25T01:09:26;7.60;32.50
578;DHT22;275;48.492;9.214;2024-03-25T01:11:52;7.80;32.80
578;DHT22;275;48.492;9.214;2024-03-25T01:14:18;7.30;33.10
578;DHT22;275;48.492;9.214;2024-03-25T01:16:45;7.10;34.10
578;DHT22;275;48.492;9.214;2024-03-25T01:19:11;7.90;32.50
578;DHT22;275;48.492;9.214;2024-03-25T01:21:38;8.00;31.10
578;DHT22;275;48.492;9.214;2024-03-25T01:24:05;7.50;32.70
578;DHT22;275;48.492;9.214;2024-03-25T01:26:32;7.70;32.60
578;DHT22;275;48.492;9.214;2024-03-25T01:28:57;7.90;31.00
578;DHT22;275;48.492;9.214;2024-03-25T01:31:24;6.70;34.60
578;DHT22;275;48.492;9.214;2024-03-25T01:33:50;6.60;35.40
578;DHT22;275;48.492;9.214;2024-03-25T01:36:17;6.60;35.70
578;DHT22;275;48.492;9.214;2024-03-25T01:38:44;7.10;34.40
578;DHT22;275;48.492;9.214;2024-03-25T01:41:13;7.10;34.10
578;DHT22;275;48.492;9.214;2024-03-25T01:43:40;6.90;34.50
578;DHT22;275;48.492;9.214;2024-03-25T01:46:07;6.80;35.50
578;DHT22;275;48.492;9.214;2024-03-25T01:48:33;7.30;33.60
578;DHT22;275;48.492;9.214;2024-03-25T01:51:01;7.20;34.10
578;DHT22;275;48.492;9.214;2024-03-25T01:53:28;7.30;33.40
578;DHT22;275;48.492;9.214;2024-03-25T01:55:56;7.10;33.90
578;DHT22;275;48.492;9.214;2024-03-25T01:58:24;6.80;35.00
578;DHT22;275;48.492;9.214;2024-03-25T02:00:52;6.90;34.80
578;DHT22;275;48.492;9.214;2024-03-25T02:03:18;6.70;35.70
578;DHT22;275;48.492;9.214;2024-03-25T02:05:45;7.20;34.20
578;DHT22;275;48.492;9.214;2024-03-25T02:08:11;7.50;33.00
578;DHT22;275;48.492;9.214;2024-03-25T02:10:39;7.30;33.70
578;DHT22;275;48.492;9.214;2024-03-25T02:13:05;7.30;33.20
578;DHT22;275;48.492;9.214;2024-03-25T02:15:35;7.40;33.40
578;DHT22;275;48.492;9.214;2024-03-25T02:18:01;7.70;32.00
578;DHT22;275;48.492;9.214;2024-03-25T02:20:28;7.70;31.30
578;DHT22;275;48.492;9.214;2024-03-25T02:22:54;7.60;32.40
578;DHT22;275;48.492;9.214;2024-03-25T02:25:22;7.60;32.00
578;DHT22;275;48.492;9.214;2024-03-25T02:27:49;7.70;32.30
578;DHT22;275;48.492;9.214;2024-03-25T02:30:17;7.50;32.50
578;DHT22;275;48.492;9.214;2024-03-25T02:32:43;7.80;31.50
578;DHT22;275;48.492;9.214;2024-03-25T02:35:12;7.80;31.50
578;DHT22;275;48.492;9.214;2024-03-25T02:37:39;7.90;31.50
578;DHT22;275;48.492;9.214;2024-03-25T02:40:08;7.80;31.00
578;DHT22;275;48.492;9.214;2024-03-25T02:42:35;7.80;31.50
578;DHT22;275;48.492;9.214;2024-03-25T02:45:05;8.00;31.80
578;DHT22;275;48.492;9.214;2024-03-25T02:47:31;8.50;30.00
578;DHT22;275;48.492;9.214;2024-03-25T02:49:58;8.80;29.20
578;DHT22;275;48.492;9.214;2024-03-25T02:52:24;9.00;28.60
578;DHT22;275;48.492;9.214;2024-03-25T02:54:51;8.60;29.00
578;DHT22;275;48.492;9.214;2024-03-25T02:57:17;7.80;30.00
578;DHT22;275;48.492;9.214;2024-03-25T02:59:44;7.20;32.60
578;DHT22;275;48.492;9.214;2024-03-25T03:02:11;6.80;34.00
578;DHT22;275;48.492;9.214;2024-03-25T03:04:38;7.10;33.40
578;DHT22;275;48.492;9.214;2024-03-25T03:07:04;7.60;31.70
578;DHT22;275;48.492;9.214;2024-03-25T03:09:31;8.30;30.00
578;DHT22;275;48.492;9.214;2024-03-25T03:11:57;8.80;29.00
578;DHT22;275;48.492;9.214;2024-03-25T03:14:24;8.80;28.70
578;DHT22;275;48.492;9.214;2024-03-25T03:16:49;9.10;28.30
578;DHT22;275;48.492;9.214;2024-03-25T03:19:21;8.50;28.60
578;DHT22;275;48.492;9.214;2024-03-25T03:21:47;8.20;29.70
578;DHT22;275;48.492;9.214;2024-03-25T03:24:14;7.60;31.00
578;DHT22;275;48.492;9.214;2024-03-25T03:26:39;7.30;31.60
578;DHT22;275;48.492;9.214;2024-03-25T03:29:06;7.40;31.30
578;DHT22;275;48.492;9.214;2024-03-25T03:31:32;7.40;31.00
578;DHT22;275;48.492;9.214;2024-03-25T03:33:59;7.50;31.40
578;DHT22;275;48.492;9.214;2024-03-25T03:36:26;7.90;30.70
578;DHT22;275;48.492;9.214;2024-03-25T03:38:53;8.30;29.80
578;DHT22;275;48.492;9.214;2024-03-25T03:41:19;8.60;28.90
578;DHT22;275;48.492;9.214;2024-03-25T03:43:46;8.80;28.40
578;DHT22;275;48.492;9.214;2024-03-25T03:46:12;8.20;29.00
578;DHT22;275;48.492;9.214;2024-03-25T03:48:39;7.80;30.20
578;DHT22;275;48.492;9.214;2024-03-25T03:51:05;8.10;29.80
578;DHT22;275;48.492;9.214;2024-03-25T03:53:33;8.60;28.90
578;DHT22;275;48.492;9.214;2024-03-25T03:56:01;8.50;29.00
578;DHT22;275;48.492;9.214;2024-03-25T03:58:29;8.70;28.70
578;DHT22;275;48.492;9.214;2024-03-25T04:00:55;8.00;29.50
578;DHT22;275;48.492;9.214;2024-03-25T04:03:22;7.20;31.20
578;DHT22;275;48.492;9.214;2024-03-25T04:05:48;7.20;31.60
578;DHT22;275;48.492;9.214;2024-03-25T04:08:15;6.90;32.50
578;DHT22;275;48.492;9.214;2024-03-25T04:10:43;7.10;32.40
578;DHT22;275;48.492;9.214;2024-03-25T04:13:10;7.60;30.30
578;DHT22;275;48.492;9.214;2024-03-25T04:15:37;7.60;30.30
578;DHT22;275;48.492;9.214;2024-03-25T04:18:04;7.20;31.80
578;DHT22;275;48.492;9.214;2024-03-25T04:20:36;7.70;30.60
578;DHT22;275;48.492;9.214;2024-03-25T04:23:03;7.30;30.70
578;DHT22;275;48.492;9.214;2024-03-25T04:25:30;7.20;31.60
578;DHT22;275;48.492;9.214;2024-03-25T04:27:58;6.90;32.60
578;DHT22;275;48.492;9.214;2024-03-25T04:30:24;7.00;32.50
578;DHT22;275;48.492;9.214;2024-03-25T04:32:51;7.50;30.70
578;DHT22;275;48.492;9.214;2024-03-25T04:35:17;8.00;29.60
578;DHT22;275;48.492;9.214;2024-03-25T04:37:44;8.60;28.60
578;DHT22;275;48.492;9.214;2024-03-25T04:40:11;7.90;29.10
578;DHT22;275;48.492;9.214;2024-03-25T04:42:37;7.90;29.20
578;DHT22;275;48.492;9.214;2024-03-25T04:45:06;7.70;30.00
578;DHT22;275;48.492;9.214;2024-03-25T04:47:32;7.70;29.80
578;DHT22;275;48.492;9.214;2024-03-25T04:49:57;8.10;29.40
578;DHT22;275;48.492;9.214;2024-03-25T04:52:23;8.60;28.40
578;DHT22;275;48.492;9.214;2024-03-25T04:54:49;8.70;28.10
578;DHT22;275;48.492;9.214;2024-03-25T04:57:15;8.70;27.80
578;DHT22;275;48.492;9.214;2024-03-25T04:59:41;8.90;27.10
578;DHT22;275;48.492;9.214;2024-03-25T05:02:08;8.90;26.70
578;DHT22;275;48.492;9.214;2024-03-25T05:04:34;8.60;27.70
578;DHT22;275;48.492;9.214;2024-03-25T05:07:01;8.70;27.30
578;DHT22;275;48.492;9.214;2024-03-25T05:09:27;8.80;27.30
578;DHT22;275;48.492;9.214;2024-03-25T05:11:53;8.60;27.50
578;DHT22;275;48.492;9.214;2024-03-25T05:14:18;8.40;27.90
578;DHT22;275;48.492;9.214;2024-03-25T05:16:44;8.30;28.00
578;DHT22;275;48.492;9.214;2024-03-25T05:19:11;8.10;28.20
578;DHT22;275;48.492;9.214;2024-03-25T05:21:37;7.90;28.30
578;DHT22;275;48.492;9.214;2024-03-25T05:24:04;7.70;28.90
578;DHT22;275;48.492;9.214;2024-03-25T05:26:29;7.40;29.70
578;DHT22;275;48.492;9.214;2024-03-25T05:28:56;7.70;29.30
578;DHT22;275;48.492;9.214;2024-03-25T05:31:23;8.10;28.40
578;DHT22;275;48.492;9.214;2024-03-25T05:33:48;8.20;28.20
578;DHT22;275;48.492;9.214;2024-03-25T05:36:16;7.70;28.90
578;DHT22;275;48.492;9.214;2024-03-25T05:38:42;7.80;28.80
578;DHT22;275;48.492;9.214;2024-03-25T05:41:08;8.00;28.10
578;DHT22;275;48.492;9.214;2024-03-25T05:43:34;8.50;27.70
578;DHT22;275;48.492;9.214;2024-03-25T05:46:00;8.70;27.00
578;DHT22;275;48.492;9.214;2024-03-25T05:48:26;8.70;27.00
578;DHT22;275;48.492;9.214;2024-03-25T05:50:59;8.30;27.10
578;DHT22;275;48.492;9.214;2024-03-25T05:53:27;8.50;27.30
578;DHT22;275;48.492;9.214;2024-03-25T05:55:53;8.80;26.60
578;DHT22;275;48.492;9.214;2024-03-25T05:58:19;9.30;25.70
578;DHT22;275;48.492;9.214;2024-03-25T06:00:47;9.40;25.60
578;DHT22;275;48.492;9.214;2024-03-25T06:03:13;9.00;26.50
578;DHT22;275;48.492;9.214;2024-03-25T06:05:38;9.00;26.60
578;DHT22;275;48.492;9.214;2024-03-25T06:08:05;9.20;26.30
578;DHT22;275;48.492;9.214;2024-03-25T06:10:36;9.20;26.10
578;DHT22;275;48.492;9.214;2024-03-25T06:13:03;9.30;26.00
578;DHT22;275;48.492;9.214;2024-03-25T06:15:28;9.20;26.50
578;DHT22;275;48.492;9.214;2024-03-25T06:17:54;9.50;26.00
578;DHT22;275;48.492;9.214;2024-03-25T06:20:20;9.30;25.80
578;DHT22;275;48.492;9.214;2024-03-25T06:22:46;9.30;25.80
578;DHT22;275;48.492;9.214;2024-03-25T06:25:12;9.40;25.60
578;DHT22;275;48.492;9.214;2024-03-25T06:27:39;9.20;26.20
578;DHT22;275;48.492;9.214;2024-03-25T06:30:07;9.30;26.20
578;DHT22;275;48.492;9.214;2024-03-25T06:32:51;9.10;26.40
578;DHT22;275;48.492;9.214;2024-03-25T06:35:35;8.60;27.40
578;DHT22;275;48.492;9.214;2024-03-25T06:38:01;8.30;28.30
578;DHT22;275;48.492;9.214;2024-03-25T06:40:27;8.50;28.00
578;DHT22;275;48.492;9.214;2024-03-25T06:42:54;8.80;27.60
578;DHT22;275;48.492;9.214;2024-03-25T06:45:20;9.30;26.60
578;DHT22;275;48.492;9.214;2024-03-25T06:47:46;9.40;26.40
578;DHT22;275;48.492;9.214;2024-03-25T06:50:12;9.70;25.70
578;DHT22;275;48.492;9.214;2024-03-25T06:52:38;9.90;25.60
578;DHT22;275;48.492;9.214;2024-03-25T06:55:04;9.80;25.30
578;DHT22;275;48.492;9.214;2024-03-25T06:57:30;10.20;24.10
578;DHT22;275;48.492;9.214;2024-03-25T06:59:57;10.10;23.60
578;DHT22;275;48.492;9.214;2024-03-25T07:02:23;9.20;26.10
578;DHT22;275;48.492;9.214;2024-03-25T07:04:49;9.00;26.40
578;DHT22;275;48.492;9.214;2024-03-25T07:07:15;9.60;25.70
578;DHT22;275;48.492;9.214;2024-03-25T07:09:41;9.20;26.50
578;DHT22;275;48.492;9.214;2024-03-25T07:12:07;9.50;25.90
578;DHT22;275;48.492;9.214;2024-03-25T07:14:33;9.40;26.00
578;DHT22;275;48.492;9.214;2024-03-25T07:17:00;9.40;26.10
578;DHT22;275;48.492;9.214;2024-03-25T07:19:26;9.90;25.30
578;DHT22;275;48.492;9.214;2024-03-25T07:21:52;10.40;23.40
578;DHT22;275;48.492;9.214;2024-03-25T07:24:18;10.60;23.10
578;DHT22;275;48.492;9.214;2024-03-25T07:26:44;10.30;23.40
578;DHT22;275;48.492;9.214;2024-03-25T07:29:10;10.80;23.20
578;DHT22;275;48.492;9.214;2024-03-25T07:31:36;11.50;21.80
578;DHT22;275;48.492;9.214;2024-03-25T07:34:03;11.70;21.30
578;DHT22;275;48.492;9.214;2024-03-25T07:36:29;11.60;21.10
578;DHT22;275;48.492;9.214;2024-03-25T07:38:55;11.40;21.40
578;DHT22;275;48.492;9.214;2024-03-25T07:41:20;11.30;21.10
578;DHT22;275;48.492;9.214;2024-03-25T07:43:46;11.30;21.10
578;DHT22;275;48.492;9.214;2024-03-25T07:46:12;11.00;22.00
578;DHT22;275;48.492;9.214;2024-03-25T07:48:38;10.80;22.20
578;DHT22;275;48.492;9.214;2024-03-25T07:51:05;10.70;22.80
578;DHT22;275;48.492;9.214;2024-03-25T07:53:31;10.80;21.90
578;DHT22;275;48.492;9.214;2024-03-25T07:55:57;10.70;21.70
578;DHT22;275;48.492;9.214;2024-03-25T07:58:23;10.40;22.30
578;DHT22;275;48.492;9.214;2024-03-25T08:00:49;10.40;22.40
578;DHT22;275;48.492;9.214;2024-03-25T08:03:14;10.70;21.80
578;DHT22;275;48.492;9.214;2024-03-25T08:05:40;10.80;21.80
578;DHT22;275;48.492;9.214;2024-03-25T08:08:08;11.00;21.50
578;DHT22;275;48.492;9.214;2024-03-25T08:10:34;11.20;21.50
578;DHT22;275;48.492;9.214;2024-03-25T08:13:00;11.30;21.60
578;DHT22;275;48.492;9.214;2024-03-25T08:15:26;11.70;21.10
578;DHT22;275;48.492;9.214;2024-03-25T08:17:52;12.00;21.10
578;DHT22;275;48.492;9.214;2024-03-25T08:20:17;13.00;19.70
578;DHT22;275;48.492;9.214;2024-03-25T08:22:43;15.10;17.30
578;DHT22;275;48.492;9.214;2024-03-25T08:25:11;17.20;15.70
578;DHT22;275;48.492;9.214;2024-03-25T08:27:37;18.90;13.30
578;DHT22;275;48.492;9.214;2024-03-25T08:30:03;19.10;11.70
578;DHT22;275;48.492;9.214;2024-03-25T08:32:29;17.70;13.20
578;DHT22;275;48.492;9.214;2024-03-25T08:34:55;18.40;13.40
578;DHT22;275;48.492;9.214;2024-03-25T08:37:21;20.20;11.10
578;DHT22;275;48.492;9.214;2024-03-25T08:39:47;19.10;11.60
578;DHT22;275;48.492;9.214;2024-03-25T08:42:14;17.50;12.60
578;DHT22;275;48.492;9.214;2024-03-25T08:44:40;17.70;13.30
578;DHT22;275;48.492;9.214;2024-03-25T08:47:06;18.30;12.00
578;DHT22;275;48.492;9.214;2024-03-25T08:49:32;21.10;11.20
578;DHT22;275;48.492;9.214;2024-03-25T08:51:58;23.60;8.10
578;DHT22;275;48.492;9.214;2024-03-25T08:54:23;24.10;7.60
578;DHT22;275;48.492;9.214;2024-03-25T08:56:49;24.60;5.90
578;DHT22;275;48.492;9.214;2024-03-25T08:59:17;25.90;6.00
578;DHT22;275;48.492;9.214;2024-03-25T09:01:42;27.50;4.10
578;DHT22;275;48.492;9.214;2024-03-25T09:04:08;24.90;5.00
578;DHT22;275;48.492;9.214;2024-03-25T09:06:34;25.60;4.80
578;DHT22;275;48.492;9.214;2024-03-25T09:09:00;23.70;5.50
578;DHT22;275;48.492;9.214;2024-03-25T09:11:44;22.20;6.90
578;DHT22;275;48.492;9.214;2024-03-25T09:14:10;22.10;7.20
578;DHT22;275;48.492;9.214;2024-03-25T09:16:37;23.10;6.60
578;DHT22;275;48.492;9.214;2024-03-25T09:19:03;25.00;5.30
578;DHT22;275;48.492;9.214;2024-03-25T09:23:57;24.00;5.70
578;DHT22;275;48.492;9.214;2024-03-25T09:26:23;24.20;5.30
578;DHT22;275;48.492;9.214;2024-03-25T09:28:48;26.10;4.00
578;DHT22;275;48.492;9.214;2024-03-25T09:31:14;27.60;3.00
578;DHT22;275;48.492;9.214;2024-03-25T09:33:42;29.60;1.20
578;DHT22;275;48.492;9.214;2024-03-25T09:36:08;29.80;1.00
578;DHT22;275;48.492;9.214;2024-03-25T09:38:33;30.40;1.00
578;DHT22;275;48.492;9.214;2024-03-25T09:41:00;30.30;1.00
578;DHT22;275;48.492;9.214;2024-03-25T09:43:32;30.20;1.00
578;DHT22;275;48.492;9.214;2024-03-25T09:45:58;30.30;1.00
578;DHT22;275;48.492;9.214;2024-03-25T09:48:24;27.10;1.00
578;DHT22;275;48.492;9.214;2024-03-25T09:50:52;26.40;1.40
578;DHT22;275;48.492;9.214;2024-03-25T09:53:18;26.00;2.10
578;DHT22;275;48.492;9.214;2024-03-25T09:55:46;26.10;2.10
578;DHT22;275;48.492;9.214;2024-03-25T09:58:13;26.70;1.20
578;DHT22;275;48.492;9.214;2024-03-25T10:00:40;27.40;1.00
578;DHT22;275;48.492;9.214;2024-03-25T10:03:05;27.70;1.00
578;DHT22;275;48.492;9.214;2024-03-25T10:05:32;27.60;1.00
578;DHT22;275;48.492;9.214;2024-03-25T10:07:59;26.90;1.00
578;DHT22;275;48.492;9.214;2024-03-25T10:10:25;27.30;1.00
578;DHT22;275;48.492;9.214;2024-03-25T10:12:54;27.70;1.00
578;DHT22;275;48.492;9.214;2024-03-25T10:15:20;28.60;1.00
578;DHT22;275;48.492;9.214;2024-03-25T10:17:49;26.30;1.00
578;DHT22;275;48.492;9.214;2024-03-25T10:20:15;26.40;1.00
578;DHT22;275;48.492;9.214;2024-03-25T10:22:41;28.80;1.00
578;DHT22;275;48.492;9.214;2024-03-25T10:25:19;28.10;1.00
578;DHT22;275;48.492;9.214;2024-03-25T10:27:53;26.90;1.00
578;DHT22;275;48.492;9.214;2024-03-25T10:30:19;24.90;1.00
578;DHT22;275;48.492;9.214;2024-03-25T10:32:45;21.50;2.70
578;DHT22;275;48.492;9.214;2024-03-25T10:35:12;20.40;3.90
578;DHT22;275;48.492;9.214;2024-03-25T10:37:39;21.10;3.10
578;DHT22;275;48.492;9.214;2024-03-25T10:40:09;21.10;2.80
578;DHT22;275;48.492;9.214;2024-03-25T10:42:39;22.10;2.20
578;DHT22;275;48.492;9.214;2024-03-25T10:45:09;25.00;1.20
578;DHT22;275;48.492;9.214;2024-03-25T10:47:36;28.00;1.00
578;DHT22;275;48.492;9.214;2024-03-25T10:50:06;29.10;1.00
578;DHT22;275;48.492;9.214;2024-03-25T10:52:34;29.50;1.00
578;DHT22;275;48.492;9.214;2024-03-25T10:55:02;29.80;1.00
578;DHT22;275;48.492;9.214;2024-03-25T10:57:30;30.90;1.00
578;DHT22;275;48.492;9.214;2024-03-25T10:59:57;30.70;1.00
578;DHT22;275;48.492;9.214;2024-03-25T11:02:23;30.10;1.00
578;DHT22;275;48.492;9.214;2024-03-25T11:04:50;30.10;1.00
578;DHT22;275;48.492;9.214;2024-03-25T11:07:17;30.60;1.00
578;DHT22;275;48.492;9.214;2024-03-25T11:09:43;29.20;1.00
578;DHT22;275;48.492;9.214;2024-03-25T11:12:10;29.20;1.00
578;DHT22;275;48.492;9.214;2024-03-25T11:14:38;29.60;1.00
578;DHT22;275;48.492;9.214;2024-03-25T11:17:14;27.00;1.00
578;DHT22;275;48.492;9.214;2024-03-25T11:19:41;23.60;1.00
578;DHT22;275;48.492;9.214;2024-03-25T11:22:08;21.10;1.00
578;DHT22;275;48.492;9.214;2024-03-25T11:24:35;19.80;2.00
578;DHT22;275;48.492;9.214;2024-03-25T11:27:02;17.30;4.00
578;DHT22;275;48.492;9.214;2024-03-25T11:29:28;16.40;4.60
578;DHT22;275;48.492;9.214;2024-03-25T11:31:55;16.00;5.00
578;DHT22;275;48.492;9.214;2024-03-25T11:34:25;15.70;5.70
578;DHT22;275;48.492;9.214;2024-03-25T11:36:50;14.70;6.10
578;DHT22;275;48.492;9.214;2024-03-25T11:39:16;13.80;7.10
578;DHT22;275;48.492;9.214;2024-03-25T11:41:42;13.20;6.60
578;DHT22;275;48.492;9.214;2024-03-25T11:44:09;13.60;7.70
578;DHT22;275;48.492;9.214;2024-03-25T11:46:37;14.10;7.20
578;DHT22;275;48.492;9.214;2024-03-25T11:49:05;14.50;6.80
578;DHT22;275;48.492;9.214;2024-03-25T11:51:31;14.20;7.00
578;DHT22;275;48.492;9.214;2024-03-25T11:53:57;13.60;6.80
578;DHT22;275;48.492;9.214;2024-03-25T11:56:23;13.50;6.90
578;DHT22;275;48.492;9.214;2024-03-25T11:58:53;13.70;6.90
578;DHT22;275;48.492;9.214;2024-03-25T12:01:18;13.90;6.00
578;DHT22;275;48.492;9.214;2024-03-25T12:03:47;14.40;5.90
578;DHT22;275;48.492;9.214;2024-03-25T12:06:18;14.70;5.30
578;DHT22;275;48.492;9.214;2024-03-25T12:08:44;14.80;4.10
578;DHT22;275;48.492;9.214;2024-03-25T12:11:10;15.30;4.00
578;DHT22;275;48.492;9.214;2024-03-25T12:13:45;15.60;3.70
578;DHT22;275;48.492;9.214;2024-03-25T12:16:11;15.80;3.70
578;DHT22;275;48.492;9.214;2024-03-25T12:18:40;15.40;4.00
578;DHT22;275;48.492;9.214;2024-03-25T12:21:07;14.70;5.20
578;DHT22;275;48.492;9.214;2024-03-25T12:23:34;15.90;4.30
578;DHT22;275;48.492;9.214;2024-03-25T12:26:00;18.60;1.00
578;DHT22;275;48.492;9.214;2024-03-25T12:28:26;21.80;1.00
578;DHT22;275;48.492;9.214;2024-03-25T12:30:53;23.70;1.00
578;DHT22;275;48.492;9.214;2024-03-25T12:33:19;25.20;1.00
578;DHT22;275;48.492;9.214;2024-03-25T12:35:46;24.70;1.00
578;DHT22;275;48.492;9.214;2024-03-25T12:38:24;25.90;1.00
578;DHT22;275;48.492;9.214;2024-03-25T12:40:53;26.90;1.00
578;DHT22;275;48.492;9.214;2024-03-25T12:43:19;25.20;1.00
578;DHT22;275;48.492;9.214;2024-03-25T12:45:45;24.10;1.00
578;DHT22;275;48.492;9.214;2024-03-25T12:48:11;23.70;1.00
578;DHT22;275;48.492;9.214;2024-03-25T12:50:37;26.50;1.00
578;DHT22;275;48.492;9.214;2024-03-25T12:53:03;28.90;1.00
578;DHT22;275;48.492;9.214;2024-03-25T12:55:29;30.30;1.00
578;DHT22;275;48.492;9.214;2024-03-25T12:57:58;30.50;1.00
578;DHT22;275;48.492;9.214;2024-03-25T13:00:24;30.00;1.00
578;DHT22;275;48.492;9.214;2024-03-25T13:02:50;27.50;1.00
578;DHT22;275;48.492;9.214;2024-03-25T13:05:16;26.70;1.00
578;DHT22;275;48.492;9.214;2024-03-25T13:07:42;28.00;1.00
578;DHT22;275;48.492;9.214;2024-03-25T13:10:08;27.50;1.00
578;DHT22;275;48.492;9.214;2024-03-25T13:12:34;27.00;1.00
578;DHT22;275;48.492;9.214;2024-03-25T13:15:01;26.30;1.00
578;DHT22;275;48.492;9.214;2024-03-25T13:17:27;27.80;1.00
578;DHT22;275;48.492;9.214;2024-03-25T13:19:53;28.30;1.00
578;DHT22;275;48.492;9.214;2024-03-25T13:22:19;27.60;1.00
578;DHT22;275;48.492;9.214;2024-03-25T13:24:45;26.50;1.00
578;DHT22;275;48.492;9.214;2024-03-25T13:27:10;26.20;1.00
578;DHT22;275;48.492;9.214;2024-03-25T13:29:36;25.90;1.00
578;DHT22;275;48.492;9.214;2024-03-25T13:32:04;26.90;1.00
578;DHT22;275;48.492;9.214;2024-03-25T13:34:30;26.70;1.00
578;DHT22;275;48.492;9.214;2024-03-25T13:36:55;26.90;1.00
578;DHT22;275;48.492;9.214;2024-03-25T13:39:21;25.40;1.00
578;DHT22;275;48.492;9.214;2024-03-25T13:41:47;25.20;1.00
578;DHT22;275;48.492;9.214;2024-03-25T13:44:14;25.70;1.00
578;DHT22;275;48.492;9.214;2024-03-25T13:46:40;25.10;1.00
578;DHT22;275;48.492;9.214;2024-03-25T13:49:07;22.60;1.00
578;DHT22;275;48.492;9.214;2024-03-25T13:51:33;20.20;1.00
578;DHT22;275;48.492;9.214;2024-03-25T13:53:59;19.20;1.00
578;DHT22;275;48.492;9.214;2024-03-25T13:56:25;17.20;1.30
578;DHT22;275;48.492;9.214;2024-03-25T13:58:51;16.90;2.10
578;DHT22;275;48.492;9.214;2024-03-25T14:01:17;17.40;1.60
578;DHT22;275;48.492;9.214;2024-03-25T14:03:43;17.00;1.70
578;DHT22;275;48.492;9.214;2024-03-25T14:06:12;16.60;2.20
578;DHT22;275;48.492;9.214;2024-03-25T14:08:39;16.30;1.50
578;DHT22;275;48.492;9.214;2024-03-25T14:11:05;15.20;2.30
578;DHT22;275;48.492;9.214;2024-03-25T14:13:31;14.80;2.10
578;DHT22;275;48.492;9.214;2024-03-25T14:15:57;15.60;1.60
578;DHT22;275;48.492;9.214;2024-03-25T14:18:22;16.60;1.00
578;DHT22;275;48.492;9.214;2024-03-25T14:20:51;15.80;1.00
578;DHT22;275;48.492;9.214;2024-03-25T14:23:18;15.40;1.30
578;DHT22;275;48.492;9.214;2024-03-25T14:25:44;16.10;1.30
578;DHT22;275;48.492;9.214;2024-03-25T14:28:10;15.70;1.60
578;DHT22;275;48.492;9.214;2024-03-25T14:30:36;15.30;1.80
578;DHT22;275;48.492;9.214;2024-03-25T14:33:03;15.10;1.50
578;DHT22;275;48.492;9.214;2024-03-25T14:35:29;15.40;1.30
578;DHT22;275;48.492;9.214;2024-03-25T14:37:54;15.60;1.20
578;DHT22;275;48.492;9.214;2024-03-25T14:40:22;16.30;1.00
578;DHT22;275;48.492;9.214;2024-03-25T14:42:49;16.20;1.00
578;DHT22;275;48.492;9.214;2024-03-25T14:45:15;15.80;1.00
578;DHT22;275;48.492;9.214;2024-03-25T14:47:41;15.20;1.60
578;DHT22;275;48.492;9.214;2024-03-25T14:50:08;14.70;2.20
578;DHT22;275;48.492;9.214;2024-03-25T14:52:34;14.30;2.70
578;DHT22;275;48.492;9.214;2024-03-25T14:55:00;14.50;2.80
578;DHT22;275;48.492;9.214;2024-03-25T14:57:27;14.40;3.20
578;DHT22;275;48.492;9.214;2024-03-25T14:59:53;14.10;3.00
578;DHT22;275;48.492;9.214;2024-03-25T15:02:20;14.30;3.20
578;DHT22;275;48.492;9.214;2024-03-25T15:04:46;14.40;6.60
578;DHT22;275;48.492;9.214;2024-03-25T15:07:12;14.80;7.00
578;DHT22;275;48.492;9.214;2024-03-25T15:09:38;15.20;4.20
578;DHT22;275;48.492;9.214;2024-03-25T15:12:07;15.10;5.00
578;DHT22;275;48.492;9.214;2024-03-25T15:14:36;15.10;5.30
578;DHT22;275;48.492;9.214;2024-03-25T15:17:01;15.20;4.00
578;DHT22;275;48.492;9.214;2024-03-25T15:19:27;15.20;3.90
578;DHT22;275;48.492;9.214;2024-03-25T15:21:53;15.30;5.90
578;DHT22;275;48.492;9.214;2024-03-25T15:24:19;15.90;3.90
578;DHT22;275;48.492;9.214;2024-03-25T15:26:45;16.20;2.70
578;DHT22;275;48.492;9.214;2024-03-25T15:29:11;15.90;4.30
578;DHT22;275;48.492;9.214;2024-03-25T15:31:38;15.60;3.90
578;DHT22;275;48.492;9.214;2024-03-25T15:34:04;16.00;2.40
578;DHT22;275;48.492;9.214;2024-03-25T15:36:30;15.60;3.70
578;DHT22;275;48.492;9.214;2024-03-25T15:38:56;15.10;2.70
578;DHT22;275;48.492;9.214;2024-03-25T15:41:22;15.40;2.60
578;DHT22;275;48.492;9.214;2024-03-25T15:43:51;15.80;1.50
578;DHT22;275;48.492;9.214;2024-03-25T15:46:17;15.60;1.70
578;DHT22;275;48.492;9.214;2024-03-25T15:48:44;14.80;2.70
578;DHT22;275;48.492;9.214;2024-03-25T15:51:10;14.30;3.60
578;DHT22;275;48.492;9.214;2024-03-25T15:53:36;14.60;3.70
578;DHT22;275;48.492;9.214;2024-03-25T15:56:06;14.60;4.10
578;DHT22;275;48.492;9.214;2024-03-25T15:58:32;14.50;3.60
578;DHT22;275;48.492;9.214;2024-03-25T16:00:58;14.10;3.90
578;DHT22;275;48.492;9.214;2024-03-25T16:03:25;14.00;4.60
578;DHT22;275;48.492;9.214;2024-03-25T16:05:52;14.50;3.80
578;DHT22;275;48.492;9.214;2024-03-25T16:08:18;14.70;3.50
578;DHT22;275;48.492;9.214;2024-03-25T16:10:44;13.90;4.40
578;DHT22;275;48.492;9.214;2024-03-25T16:13:10;13.70;4.70
578;DHT22;275;48.492;9.214;2024-03-25T16:15:36;14.00;7.30
578;DHT22;275;48.492;9.214;2024-03-25T16:18:02;14.00;6.10
578;DHT22;275;48.492;9.214;2024-03-25T16:20:29;14.10;6.70
578;DHT22;275;48.492;9.214;2024-03-25T16:22:56;14.40;6.80
578;DHT22;275;48.492;9.214;2024-03-25T16:25:22;14.40;6.70
578;DHT22;275;48.492;9.214;2024-03-25T16:27:48;14.70;5.20
578;DHT22;275;48.492;9.214;2024-03-25T16:30:14;14.80;6.40
578;DHT22;275;48.492;9.214;2024-03-25T16:32:40;15.00;4.80
578;DHT22;275;48.492;9.214;2024-03-25T16:35:07;15.10;4.50
578;DHT22;275;48.492;9.214;2024-03-25T16:37:33;15.10;5.30
578;DHT22;275;48.492;9.214;2024-03-25T16:40:00;14.80;6.70
578;DHT22;275;48.492;9.214;2024-03-25T16:42:26;14.40;6.20
578;DHT22;275;48.492;9.214;2024-03-25T16:44:52;14.40;6.10
578;DHT22;275;48.492;9.214;2024-03-25T16:47:18;14.40;5.90